sensor_id;sensor_type;location;lat;lon;timestamp;P1;durP1;ratioP1;P2;durP2;ratioP2
16705;SDS011;8469;60.136;15.180;2023-11-19T00:02:13;6.95;;;4.05;;
16705;SDS011;8469;60.136;15.180;2023-11-19T00:04:40;7.65;;;4.00;;
16705;SDS011;8469;60.136;15.180;2023-11-19T00:07:07;8.73;;;4.55;;
16705;SDS011;8469;60.136;15.180;2023-11-19T00:09:36;8.38;;;4.00;;
16705;SDS011;8469;60.136;15.180;2023-11-19T00:12:04;8.40;;;3.95;;
16705;SDS011;8469;60.136;15.180;2023-11-19T00:14:31;7.00;;;3.83;;
16705;SDS011;8469;60.136;15.180;2023-11-19T00:16:59;10.70;;;4.15;;
16705;SDS011;8469;60.136;15.180;2023-11-19T00:19:26;6.03;;;3.80;;
16705;SDS011;8469;60.136;15.180;2023-11-19T00:21:54;9.58;;;3.55;;
16705;SDS011;8469;60.136;15.180;2023-11-19T00:24:21;6.20;;;3.62;;
16705;SDS011;8469;60.136;15.180;2023-11-19T00:26:49;7.13;;;3.17;;
16705;SDS011;8469;60.136;15.180;2023-11-19T00:29:16;5.45;;;2.92;;
16705;SDS011;8469;60.136;15.180;2023-11-19T00:31:45;6.50;;;2.87;;
16705;SDS011;8469;60.136;15.180;2023-11-19T00:34:12;17.23;;;3.15;;
16705;SDS011;8469;60.136;15.180;2023-11-19T00:36:39;8.93;;;3.12;;
16705;SDS011;8469;60.136;15.180;2023-11-19T00:39:07;6.97;;;3.15;;
16705;SDS011;8469;60.136;15.180;2023-11-19T00:41:34;5.75;;;3.00;;
16705;SDS011;8469;60.136;15.180;2023-11-19T00:44:01;4.55;;;2.60;;
16705;SDS011;8469;60.136;15.180;2023-11-19T00:46:29;5.67;;;2.47;;
16705;SDS011;8469;60.136;15.180;2023-11-19T00:48:58;5.80;;;2.33;;
16705;SDS011;8469;60.136;15.180;2023-11-19T00:51:26;2.47;;;1.90;;
16705;SDS011;8469;60.136;15.180;2023-11-19T00:53:55;3.00;;;1.67;;
16705;SDS011;8469;60.136;15.180;2023-11-19T00:56:21;4.40;;;1.60;;
16705;SDS011;8469;60.136;15.180;2023-11-19T00:58:50;3.20;;;1.60;;
16705;SDS011;8469;60.136;15.180;2023-11-19T01:01:17;2.42;;;1.50;;
16705;SDS011;8469;60.136;15.180;2023-11-19T01:03:45;1.70;;;1.60;;
16705;SDS011;8469;60.136;15.180;2023-11-19T01:06:12;1.70;;;1.50;;
16705;SDS011;8469;60.136;15.180;2023-11-19T01:08:42;1.40;;;1.30;;
16705;SDS011;8469;60.136;15.180;2023-11-19T01:11:19;1.82;;;1.60;;
16705;SDS011;8469;60.136;15.180;2023-11-19T01:13:39;2.72;;;2.00;;
16705;SDS011;8469;60.136;15.180;2023-11-19T01:16:08;2.60;;;1.77;;
16705;SDS011;8469;60.136;15.180;2023-11-19T01:18:36;1.40;;;1.30;;
16705;SDS011;8469;60.136;15.180;2023-11-19T01:21:03;2.08;;;1.60;;
16705;SDS011;8469;60.136;15.180;2023-11-19T01:23:31;2.98;;;1.60;;
16705;SDS011;8469;60.136;15.180;2023-11-19T01:25:58;1.62;;;1.52;;
16705;SDS011;8469;60.136;15.180;2023-11-19T01:28:26;1.95;;;1.47;;
16705;SDS011;8469;60.136;15.180;2023-11-19T01:30:53;1.77;;;1.60;;
16705;SDS011;8469;60.136;15.180;2023-11-19T01:33:21;3.05;;;1.80;;
16705;SDS011;8469;60.136;15.180;2023-11-19T01:35:48;3.33;;;1.98;;
16705;SDS011;8469;60.136;15.180;2023-11-19T01:38:15;3.22;;;1.80;;
16705;SDS011;8469;60.136;15.180;2023-11-19T01:40:42;1.57;;;1.47;;
16705;SDS011;8469;60.136;15.180;2023-11-19T01:43:10;1.90;;;1.50;;
16705;SDS011;8469;60.136;15.180;2023-11-19T01:45:41;1.70;;;1.60;;
16705;SDS011;8469;60.136;15.180;2023-11-19T01:48:08;2.20;;;1.55;;
16705;SDS011;8469;60.136;15.180;2023-11-19T01:50:37;2.20;;;1.55;;
16705;SDS011;8469;60.136;15.180;2023-11-19T01:53:06;2.90;;;1.70;;
16705;SDS011;8469;60.136;15.180;2023-11-19T01:55:34;1.70;;;1.52;;
16705;SDS011;8469;60.136;15.180;2023-11-19T01:58:01;3.92;;;1.47;;
16705;SDS011;8469;60.136;15.180;2023-11-19T02:00:28;1.67;;;1.57;;
16705;SDS011;8469;60.136;15.180;2023-11-19T02:02:56;1.50;;;1.40;;
16705;SDS011;8469;60.136;15.180;2023-11-19T02:05:23;2.72;;;1.50;;
16705;SDS011;8469;60.136;15.180;2023-11-19T02:07:50;2.90;;;1.50;;
16705;SDS011;8469;60.136;15.180;2023-11-19T02:10:18;1.95;;;1.50;;
16705;SDS011;8469;60.136;15.180;2023-11-19T02:12:45;3.85;;;1.60;;
16705;SDS011;8469;60.136;15.180;2023-11-19T02:15:12;2.45;;;1.60;;
16705;SDS011;8469;60.136;15.180;2023-11-19T02:17:40;2.47;;;1.80;;
16705;SDS011;8469;60.136;15.180;2023-11-19T02:20:07;2.33;;;1.87;;
16705;SDS011;8469;60.136;15.180;2023-11-19T02:22:35;2.02;;;1.67;;
16705;SDS011;8469;60.136;15.180;2023-11-19T02:25:12;1.75;;;1.52;;
16705;SDS011;8469;60.136;15.180;2023-11-19T02:27:46;3.95;;;1.70;;
16705;SDS011;8469;60.136;15.180;2023-11-19T02:30:12;2.83;;;1.87;;
16705;SDS011;8469;60.136;15.180;2023-11-19T02:32:42;6.67;;;2.10;;
16705;SDS011;8469;60.136;15.180;2023-11-19T02:35:09;6.72;;;1.75;;
16705;SDS011;8469;60.136;15.180;2023-11-19T02:37:38;23.05;;;2.22;;
16705;SDS011;8469;60.136;15.180;2023-11-19T02:40:05;82.53;;;4.08;;
16705;SDS011;8469;60.136;15.180;2023-11-19T02:42:34;23.77;;;2.20;;
16705;SDS011;8469;60.136;15.180;2023-11-19T02:45:02;14.20;;;1.90;;
16705;SDS011;8469;60.136;15.180;2023-11-19T02:47:31;16.60;;;1.92;;
16705;SDS011;8469;60.136;15.180;2023-11-19T02:49:57;84.42;;;3.42;;
16705;SDS011;8469;60.136;15.180;2023-11-19T02:52:26;36.65;;;2.42;;
16705;SDS011;8469;60.136;15.180;2023-11-19T02:54:53;43.57;;;2.70;;
16705;SDS011;8469;60.136;15.180;2023-11-19T02:57:21;3.90;;;2.12;;
16705;SDS011;8469;60.136;15.180;2023-11-19T02:59:48;6.62;;;1.90;;
16705;SDS011;8469;60.136;15.180;2023-11-19T03:02:16;4.87;;;1.83;;
16705;SDS011;8469;60.136;15.180;2023-11-19T03:04:43;16.07;;;1.90;;
16705;SDS011;8469;60.136;15.180;2023-11-19T03:07:11;41.23;;;2.60;;
16705;SDS011;8469;60.136;15.180;2023-11-19T03:09:39;2.47;;;1.70;;
16705;SDS011;8469;60.136;15.180;2023-11-19T03:12:07;6.70;;;2.02;;
16705;SDS011;8469;60.136;15.180;2023-11-19T03:14:34;8.15;;;2.58;;
16705;SDS011;8469;60.136;15.180;2023-11-19T03:17:01;7.92;;;2.37;;
16705;SDS011;8469;60.136;15.180;2023-11-19T03:19:29;3.15;;;1.90;;
16705;SDS011;8469;60.136;15.180;2023-11-19T03:21:56;2.37;;;1.72;;
16705;SDS011;8469;60.136;15.180;2023-11-19T03:24:25;3.60;;;2.00;;
16705;SDS011;8469;60.136;15.180;2023-11-19T03:26:53;8.18;;;1.70;;
16705;SDS011;8469;60.136;15.180;2023-11-19T03:29:20;5.60;;;1.57;;
16705;SDS011;8469;60.136;15.180;2023-11-19T03:31:49;37.73;;;2.67;;
16705;SDS011;8469;60.136;15.180;2023-11-19T03:34:16;11.53;;;1.60;;
16705;SDS011;8469;60.136;15.180;2023-11-19T03:36:43;1.60;;;1.50;;
16705;SDS011;8469;60.136;15.180;2023-11-19T03:39:11;4.00;;;2.30;;
16705;SDS011;8469;60.136;15.180;2023-11-19T03:41:39;5.17;;;2.47;;
16705;SDS011;8469;60.136;15.180;2023-11-19T03:44:06;2.22;;;1.60;;
16705;SDS011;8469;60.136;15.180;2023-11-19T03:46:33;3.35;;;1.70;;
16705;SDS011;8469;60.136;15.180;2023-11-19T03:49:02;2.85;;;1.87;;
16705;SDS011;8469;60.136;15.180;2023-11-19T03:51:30;4.25;;;3.00;;
16705;SDS011;8469;60.136;15.180;2023-11-19T03:53:58;2.62;;;2.08;;
16705;SDS011;8469;60.136;15.180;2023-11-19T03:56:25;2.22;;;1.80;;
16705;SDS011;8469;60.136;15.180;2023-11-19T03:58:53;4.08;;;2.20;;
16705;SDS011;8469;60.136;15.180;2023-11-19T04:01:20;2.80;;;1.80;;
16705;SDS011;8469;60.136;15.180;2023-11-19T04:03:48;2.87;;;1.60;;
16705;SDS011;8469;60.136;15.180;2023-11-19T04:06:15;2.85;;;1.70;;
16705;SDS011;8469;60.136;15.180;2023-11-19T04:08:42;2.40;;;1.70;;
16705;SDS011;8469;60.136;15.180;2023-11-19T04:11:10;1.60;;;1.50;;
16705;SDS011;8469;60.136;15.180;2023-11-19T04:13:37;3.87;;;1.90;;
16705;SDS011;8469;60.136;15.180;2023-11-19T04:16:05;1.93;;;1.60;;
16705;SDS011;8469;60.136;15.180;2023-11-19T04:18:32;1.67;;;1.57;;
16705;SDS011;8469;60.136;15.180;2023-11-19T04:21:00;2.27;;;1.32;;
16705;SDS011;8469;60.136;15.180;2023-11-19T04:23:27;1.50;;;1.40;;
16705;SDS011;8469;60.136;15.180;2023-11-19T04:25:54;2.00;;;1.50;;
16705;SDS011;8469;60.136;15.180;2023-11-19T04:28:22;1.40;;;1.25;;
16705;SDS011;8469;60.136;15.180;2023-11-19T04:30:51;1.35;;;1.15;;
16705;SDS011;8469;60.136;15.180;2023-11-19T04:33:19;2.30;;;0.98;;
16705;SDS011;8469;60.136;15.180;2023-11-19T04:35:46;2.77;;;1.05;;
16705;SDS011;8469;60.136;15.180;2023-11-19T04:38:13;1.02;;;1.02;;
16705;SDS011;8469;60.136;15.180;2023-11-19T04:40:41;0.88;;;0.88;;
16705;SDS011;8469;60.136;15.180;2023-11-19T04:43:08;1.20;;;1.10;;
16705;SDS011;8469;60.136;15.180;2023-11-19T04:45:35;1.40;;;1.30;;
16705;SDS011;8469;60.136;15.180;2023-11-19T04:48:03;0.90;;;0.87;;
16705;SDS011;8469;60.136;15.180;2023-11-19T04:50:30;1.27;;;1.00;;
16705;SDS011;8469;60.136;15.180;2023-11-19T04:52:57;0.90;;;0.90;;
16705;SDS011;8469;60.136;15.180;2023-11-19T04:55:25;0.93;;;0.93;;
16705;SDS011;8469;60.136;15.180;2023-11-19T04:57:53;0.88;;;0.88;;
16705;SDS011;8469;60.136;15.180;2023-11-19T05:00:21;0.95;;;0.95;;
16705;SDS011;8469;60.136;15.180;2023-11-19T05:02:48;2.17;;;1.00;;
16705;SDS011;8469;60.136;15.180;2023-11-19T05:05:15;1.00;;;0.90;;
16705;SDS011;8469;60.136;15.180;2023-11-19T05:07:43;0.90;;;0.90;;
16705;SDS011;8469;60.136;15.180;2023-11-19T05:10:11;0.98;;;0.95;;
16705;SDS011;8469;60.136;15.180;2023-11-19T05:12:38;1.92;;;1.75;;
16705;SDS011;8469;60.136;15.180;2023-11-19T05:15:05;0.90;;;0.90;;
16705;SDS011;8469;60.136;15.180;2023-11-19T05:17:33;0.98;;;0.98;;
16705;SDS011;8469;60.136;15.180;2023-11-19T05:20:00;1.35;;;1.00;;
16705;SDS011;8469;60.136;15.180;2023-11-19T05:22:28;1.00;;;1.00;;
16705;SDS011;8469;60.136;15.180;2023-11-19T05:24:55;0.90;;;0.90;;
16705;SDS011;8469;60.136;15.180;2023-11-19T05:27:22;1.00;;;1.00;;
16705;SDS011;8469;60.136;15.180;2023-11-19T05:29:50;2.20;;;1.10;;
16705;SDS011;8469;60.136;15.180;2023-11-19T05:32:17;1.10;;;1.00;;
16705;SDS011;8469;60.136;15.180;2023-11-19T05:34:44;2.83;;;1.10;;
16705;SDS011;8469;60.136;15.180;2023-11-19T05:37:12;3.70;;;1.00;;
16705;SDS011;8469;60.136;15.180;2023-11-19T05:39:39;1.10;;;1.00;;
16705;SDS011;8469;60.136;15.180;2023-11-19T05:42:06;1.37;;;1.27;;
16705;SDS011;8469;60.136;15.180;2023-11-19T05:44:34;1.40;;;1.30;;
16705;SDS011;8469;60.136;15.180;2023-11-19T05:47:01;1.40;;;1.30;;
16705;SDS011;8469;60.136;15.180;2023-11-19T05:49:29;1.37;;;1.30;;
16705;SDS011;8469;60.136;15.180;2023-11-19T05:51:56;2.52;;;1.40;;
16705;SDS011;8469;60.136;15.180;2023-11-19T05:54:23;1.30;;;1.20;;
16705;SDS011;8469;60.136;15.180;2023-11-19T05:56:51;2.30;;;1.27;;
16705;SDS011;8469;60.136;15.180;2023-11-19T05:59:20;6.75;;;1.60;;
16705;SDS011;8469;60.136;15.180;2023-11-19T06:01:49;1.77;;;1.40;;
16705;SDS011;8469;60.136;15.180;2023-11-19T06:04:16;1.75;;;1.50;;
16705;SDS011;8469;60.136;15.180;2023-11-19T06:06:43;7.55;;;1.60;;
16705;SDS011;8469;60.136;15.180;2023-11-19T06:09:11;2.47;;;1.65;;
16705;SDS011;8469;60.136;15.180;2023-11-19T06:11:39;10.00;;;1.60;;
16705;SDS011;8469;60.136;15.180;2023-11-19T06:14:06;3.22;;;1.62;;
16705;SDS011;8469;60.136;15.180;2023-11-19T06:16:34;2.45;;;1.60;;
16705;SDS011;8469;60.136;15.180;2023-11-19T06:19:03;1.73;;;1.50;;
16705;SDS011;8469;60.136;15.180;2023-11-19T06:21:30;2.60;;;1.40;;
16705;SDS011;8469;60.136;15.180;2023-11-19T06:23:57;1.92;;;1.60;;
16705;SDS011;8469;60.136;15.180;2023-11-19T06:26:25;2.77;;;1.80;;
16705;SDS011;8469;60.136;15.180;2023-11-19T06:28:52;1.57;;;1.47;;
16705;SDS011;8469;60.136;15.180;2023-11-19T06:31:20;1.67;;;1.57;;
16705;SDS011;8469;60.136;15.180;2023-11-19T06:33:47;1.90;;;1.40;;
16705;SDS011;8469;60.136;15.180;2023-11-19T06:36:15;1.42;;;1.32;;
16705;SDS011;8469;60.136;15.180;2023-11-19T06:38:43;1.90;;;1.72;;
16705;SDS011;8469;60.136;15.180;2023-11-19T06:41:10;5.97;;;1.82;;
16705;SDS011;8469;60.136;15.180;2023-11-19T06:43:37;2.97;;;1.93;;
16705;SDS011;8469;60.136;15.180;2023-11-19T06:46:05;2.25;;;2.00;;
16705;SDS011;8469;60.136;15.180;2023-11-19T06:48:32;7.97;;;1.92;;
16705;SDS011;8469;60.136;15.180;2023-11-19T06:51:00;2.40;;;2.05;;
16705;SDS011;8469;60.136;15.180;2023-11-19T06:53:27;3.17;;;2.05;;
16705;SDS011;8469;60.136;15.180;2023-11-19T06:55:54;14.13;;;2.40;;
16705;SDS011;8469;60.136;15.180;2023-11-19T06:58:22;5.50;;;2.20;;
16705;SDS011;8469;60.136;15.180;2023-11-19T07:00:50;45.63;;;2.75;;
16705;SDS011;8469;60.136;15.180;2023-11-19T07:03:17;57.83;;;3.20;;
16705;SDS011;8469;60.136;15.180;2023-11-19T07:05:46;11.83;;;2.08;;
16705;SDS011;8469;60.136;15.180;2023-11-19T07:08:14;31.75;;;2.33;;
16705;SDS011;8469;60.136;15.180;2023-11-19T07:10:42;13.63;;;2.37;;
16705;SDS011;8469;60.136;15.180;2023-11-19T07:13:09;7.33;;;2.25;;
16705;SDS011;8469;60.136;15.180;2023-11-19T07:15:37;5.30;;;2.55;;
16705;SDS011;8469;60.136;15.180;2023-11-19T07:18:04;9.38;;;2.33;;
16705;SDS011;8469;60.136;15.180;2023-11-19T07:20:31;16.25;;;2.85;;
16705;SDS011;8469;60.136;15.180;2023-11-19T07:22:59;30.45;;;2.92;;
16705;SDS011;8469;60.136;15.180;2023-11-19T07:25:26;14.47;;;2.97;;
16705;SDS011;8469;60.136;15.180;2023-11-19T07:27:54;13.58;;;3.00;;
16705;SDS011;8469;60.136;15.180;2023-11-19T07:30:21;9.75;;;3.40;;
16705;SDS011;8469;60.136;15.180;2023-11-19T07:32:48;31.90;;;3.90;;
16705;SDS011;8469;60.136;15.180;2023-11-19T07:35:16;20.63;;;3.50;;
16705;SDS011;8469;60.136;15.180;2023-11-19T07:37:44;15.50;;;3.62;;
16705;SDS011;8469;60.136;15.180;2023-11-19T07:40:13;12.93;;;3.50;;
16705;SDS011;8469;60.136;15.180;2023-11-19T07:42:40;18.17;;;3.60;;
16705;SDS011;8469;60.136;15.180;2023-11-19T07:45:08;16.35;;;3.27;;
16705;SDS011;8469;60.136;15.180;2023-11-19T07:47:35;14.75;;;2.95;;
16705;SDS011;8469;60.136;15.180;2023-11-19T07:50:02;4.55;;;2.67;;
16705;SDS011;8469;60.136;15.180;2023-11-19T07:52:30;7.40;;;2.70;;
16705;SDS011;8469;60.136;15.180;2023-11-19T07:54:57;5.70;;;2.50;;
16705;SDS011;8469;60.136;15.180;2023-11-19T07:57:24;5.15;;;2.70;;
16705;SDS011;8469;60.136;15.180;2023-11-19T07:59:53;8.20;;;2.37;;
16705;SDS011;8469;60.136;15.180;2023-11-19T08:02:21;6.15;;;2.72;;
16705;SDS011;8469;60.136;15.180;2023-11-19T08:04:49;5.08;;;2.52;;
16705;SDS011;8469;60.136;15.180;2023-11-19T08:07:18;7.95;;;2.58;;
16705;SDS011;8469;60.136;15.180;2023-11-19T08:09:45;5.95;;;2.55;;
16705;SDS011;8469;60.136;15.180;2023-11-19T08:12:13;3.58;;;2.65;;
16705;SDS011;8469;60.136;15.180;2023-11-19T08:14:42;3.17;;;2.10;;
16705;SDS011;8469;60.136;15.180;2023-11-19T08:17:10;3.87;;;2.58;;
16705;SDS011;8469;60.136;15.180;2023-11-19T08:19:37;23.80;;;9.18;;
16705;SDS011;8469;60.136;15.180;2023-11-19T08:22:05;7.03;;;3.80;;
16705;SDS011;8469;60.136;15.180;2023-11-19T08:24:32;10.97;;;3.63;;
16705;SDS011;8469;60.136;15.180;2023-11-19T08:26:59;9.63;;;2.95;;
16705;SDS011;8469;60.136;15.180;2023-11-19T08:29:27;6.53;;;3.10;;
16705;SDS011;8469;60.136;15.180;2023-11-19T08:31:54;10.70;;;3.83;;
16705;SDS011;8469;60.136;15.180;2023-11-19T08:34:21;8.23;;;3.83;;
16705;SDS011;8469;60.136;15.180;2023-11-19T08:36:54;8.88;;;3.77;;
16705;SDS011;8469;60.136;15.180;2023-11-19T08:39:19;5.47;;;3.37;;
16705;SDS011;8469;60.136;15.180;2023-11-19T08:41:48;7.12;;;3.10;;
16705;SDS011;8469;60.136;15.180;2023-11-19T08:44:16;6.97;;;3.05;;
16705;SDS011;8469;60.136;15.180;2023-11-19T08:46:46;5.35;;;3.10;;
16705;SDS011;8469;60.136;15.180;2023-11-19T08:49:14;4.45;;;2.90;;
16705;SDS011;8469;60.136;15.180;2023-11-19T08:51:41;5.10;;;3.22;;
16705;SDS011;8469;60.136;15.180;2023-11-19T08:54:09;8.33;;;3.67;;
16705;SDS011;8469;60.136;15.180;2023-11-19T08:56:37;11.00;;;4.03;;
16705;SDS011;8469;60.136;15.180;2023-11-19T08:59:05;6.33;;;2.90;;
16705;SDS011;8469;60.136;15.180;2023-11-19T09:01:32;10.43;;;3.22;;
16705;SDS011;8469;60.136;15.180;2023-11-19T09:04:00;6.42;;;3.27;;
16705;SDS011;8469;60.136;15.180;2023-11-19T09:06:27;5.90;;;4.33;;
16705;SDS011;8469;60.136;15.180;2023-11-19T09:08:55;8.30;;;3.27;;
16705;SDS011;8469;60.136;15.180;2023-11-19T09:11:24;10.00;;;4.42;;
16705;SDS011;8469;60.136;15.180;2023-11-19T09:13:51;9.20;;;4.80;;
16705;SDS011;8469;60.136;15.180;2023-11-19T09:16:18;9.90;;;4.75;;
16705;SDS011;8469;60.136;15.180;2023-11-19T09:18:46;13.05;;;4.67;;
16705;SDS011;8469;60.136;15.180;2023-11-19T09:21:13;7.22;;;3.70;;
16705;SDS011;8469;60.136;15.180;2023-11-19T09:23:40;7.63;;;3.90;;
16705;SDS011;8469;60.136;15.180;2023-11-19T09:26:08;8.55;;;3.80;;
16705;SDS011;8469;60.136;15.180;2023-11-19T09:28:36;9.03;;;5.30;;
16705;SDS011;8469;60.136;15.180;2023-11-19T09:31:03;8.60;;;4.08;;
16705;SDS011;8469;60.136;15.180;2023-11-19T09:33:45;6.28;;;3.27;;
16705;SDS011;8469;60.136;15.180;2023-11-19T09:36:12;5.60;;;3.22;;
16705;SDS011;8469;60.136;15.180;2023-11-19T09:38:43;6.50;;;3.47;;
16705;SDS011;8469;60.136;15.180;2023-11-19T09:41:10;10.53;;;3.60;;
16705;SDS011;8469;60.136;15.180;2023-11-19T09:43:39;9.78;;;4.25;;
16705;SDS011;8469;60.136;15.180;2023-11-19T09:46:09;9.48;;;3.50;;
16705;SDS011;8469;60.136;15.180;2023-11-19T09:48:38;13.93;;;4.70;;
16705;SDS011;8469;60.136;15.180;2023-11-19T09:51:07;9.60;;;4.70;;
16705;SDS011;8469;60.136;15.180;2023-11-19T09:53:35;14.10;;;6.60;;
16705;SDS011;8469;60.136;15.180;2023-11-19T09:56:03;12.07;;;5.33;;
16705;SDS011;8469;60.136;15.180;2023-11-19T09:58:31;9.03;;;5.00;;
16705;SDS011;8469;60.136;15.180;2023-11-19T10:00:59;12.90;;;5.35;;
16705;SDS011;8469;60.136;15.180;2023-11-19T10:03:26;13.48;;;5.62;;
16705;SDS011;8469;60.136;15.180;2023-11-19T10:05:54;10.40;;;4.10;;
16705;SDS011;8469;60.136;15.180;2023-11-19T10:08:22;6.72;;;3.65;;
16705;SDS011;8469;60.136;15.180;2023-11-19T10:10:49;6.15;;;3.60;;
16705;SDS011;8469;60.136;15.180;2023-11-19T10:13:18;6.87;;;3.50;;
16705;SDS011;8469;60.136;15.180;2023-11-19T10:15:45;7.75;;;3.33;;
16705;SDS011;8469;60.136;15.180;2023-11-19T10:18:13;8.67;;;4.00;;
16705;SDS011;8469;60.136;15.180;2023-11-19T10:20:42;7.15;;;3.60;;
16705;SDS011;8469;60.136;15.180;2023-11-19T10:23:10;6.53;;;3.10;;
16705;SDS011;8469;60.136;15.180;2023-11-19T10:25:38;6.10;;;3.40;;
16705;SDS011;8469;60.136;15.180;2023-11-19T10:28:05;6.35;;;3.72;;
16705;SDS011;8469;60.136;15.180;2023-11-19T10:30:32;6.92;;;3.55;;
16705;SDS011;8469;60.136;15.180;2023-11-19T10:33:07;6.08;;;3.65;;
16705;SDS011;8469;60.136;15.180;2023-11-19T10:35:35;4.72;;;2.92;;
16705;SDS011;8469;60.136;15.180;2023-11-19T10:38:24;3.58;;;2.08;;
16705;SDS011;8469;60.136;15.180;2023-11-19T10:40:52;7.85;;;2.33;;
16705;SDS011;8469;60.136;15.180;2023-11-19T10:43:22;4.15;;;2.30;;
16705;SDS011;8469;60.136;15.180;2023-11-19T10:45:49;5.25;;;2.40;;
16705;SDS011;8469;60.136;15.180;2023-11-19T10:48:17;4.55;;;2.70;;
16705;SDS011;8469;60.136;15.180;2023-11-19T10:50:46;2.50;;;2.15;;
16705;SDS011;8469;60.136;15.180;2023-11-19T10:53:14;4.87;;;2.75;;
16705;SDS011;8469;60.136;15.180;2023-11-19T10:55:41;4.00;;;2.50;;
16705;SDS011;8469;60.136;15.180;2023-11-19T10:58:12;4.45;;;2.67;;
16705;SDS011;8469;60.136;15.180;2023-11-19T11:03:16;5.42;;;2.70;;
16705;SDS011;8469;60.136;15.180;2023-11-19T11:05:43;7.15;;;3.80;;
16705;SDS011;8469;60.136;15.180;2023-11-19T11:08:13;6.03;;;3.20;;
16705;SDS011;8469;60.136;15.180;2023-11-19T11:10:48;4.78;;;2.67;;
16705;SDS011;8469;60.136;15.180;2023-11-19T11:13:10;7.30;;;3.55;;
16705;SDS011;8469;60.136;15.180;2023-11-19T11:15:38;6.63;;;3.60;;
16705;SDS011;8469;60.136;15.180;2023-11-19T11:18:08;9.35;;;3.60;;
16705;SDS011;8469;60.136;15.180;2023-11-19T11:20:35;6.08;;;3.25;;
16705;SDS011;8469;60.136;15.180;2023-11-19T11:23:10;4.87;;;3.33;;
16705;SDS011;8469;60.136;15.180;2023-11-19T11:30:55;3.08;;;2.60;;
16705;SDS011;8469;60.136;15.180;2023-11-19T11:38:48;5.08;;;3.27;;
16705;SDS011;8469;60.136;15.180;2023-11-19T11:43:50;4.87;;;3.05;;
16705;SDS011;8469;60.136;15.180;2023-11-19T11:49:06;9.60;;;3.52;;
16705;SDS011;8469;60.136;15.180;2023-11-19T11:54:33;6.72;;;2.90;;
16705;SDS011;8469;60.136;15.180;2023-11-19T11:57:01;5.03;;;2.95;;
16705;SDS011;8469;60.136;15.180;2023-11-19T12:02:12;6.42;;;3.15;;
16705;SDS011;8469;60.136;15.180;2023-11-19T12:04:39;8.10;;;3.37;;
16705;SDS011;8469;60.136;15.180;2023-11-19T12:07:13;5.90;;;2.98;;
16705;SDS011;8469;60.136;15.180;2023-11-19T12:09:42;6.67;;;2.83;;
16705;SDS011;8469;60.136;15.180;2023-11-19T12:12:17;4.70;;;2.95;;
16705;SDS011;8469;60.136;15.180;2023-11-19T12:22:31;7.90;;;3.70;;
16705;SDS011;8469;60.136;15.180;2023-11-19T12:24:59;8.40;;;4.00;;
16705;SDS011;8469;60.136;15.180;2023-11-19T12:27:27;5.33;;;3.15;;
16705;SDS011;8469;60.136;15.180;2023-11-19T12:29:55;6.70;;;3.27;;
16705;SDS011;8469;60.136;15.180;2023-11-19T12:32:23;6.20;;;3.50;;
16705;SDS011;8469;60.136;15.180;2023-11-19T12:34:51;7.62;;;3.37;;
16705;SDS011;8469;60.136;15.180;2023-11-19T12:37:18;7.85;;;3.30;;
16705;SDS011;8469;60.136;15.180;2023-11-19T12:39:46;7.97;;;3.40;;
16705;SDS011;8469;60.136;15.180;2023-11-19T12:42:13;6.28;;;3.35;;
16705;SDS011;8469;60.136;15.180;2023-11-19T12:44:53;4.72;;;3.05;;
16705;SDS011;8469;60.136;15.180;2023-11-19T12:47:09;6.65;;;3.17;;
16705;SDS011;8469;60.136;15.180;2023-11-19T12:49:37;6.60;;;3.72;;
16705;SDS011;8469;60.136;15.180;2023-11-19T12:52:11;9.23;;;3.77;;
16705;SDS011;8469;60.136;15.180;2023-11-19T12:54:39;7.47;;;3.98;;
16705;SDS011;8469;60.136;15.180;2023-11-19T12:57:06;11.00;;;6.25;;
16705;SDS011;8469;60.136;15.180;2023-11-19T12:59:34;9.48;;;4.08;;
16705;SDS011;8469;60.136;15.180;2023-11-19T13:02:01;5.75;;;3.67;;
16705;SDS011;8469;60.136;15.180;2023-11-19T13:04:31;6.67;;;4.28;;
16705;SDS011;8469;60.136;15.180;2023-11-19T13:06:58;13.18;;;5.67;;
16705;SDS011;8469;60.136;15.180;2023-11-19T13:09:26;13.50;;;6.00;;
16705;SDS011;8469;60.136;15.180;2023-11-19T13:11:55;9.05;;;5.45;;
16705;SDS011;8469;60.136;15.180;2023-11-19T13:14:35;9.45;;;5.10;;
16705;SDS011;8469;60.136;15.180;2023-11-19T13:16:55;10.55;;;5.33;;
16705;SDS011;8469;60.136;15.180;2023-11-19T13:19:22;10.33;;;6.00;;
16705;SDS011;8469;60.136;15.180;2023-11-19T13:21:50;6.97;;;4.55;;
16705;SDS011;8469;60.136;15.180;2023-11-19T13:24:18;7.53;;;4.15;;
16705;SDS011;8469;60.136;15.180;2023-11-19T13:26:45;7.00;;;4.10;;
16705;SDS011;8469;60.136;15.180;2023-11-19T13:29:13;6.03;;;3.52;;
16705;SDS011;8469;60.136;15.180;2023-11-19T13:31:40;8.50;;;5.23;;
16705;SDS011;8469;60.136;15.180;2023-11-19T13:34:08;10.30;;;6.30;;
16705;SDS011;8469;60.136;15.180;2023-11-19T13:36:35;8.10;;;3.40;;
16705;SDS011;8469;60.136;15.180;2023-11-19T13:39:03;8.20;;;4.00;;
16705;SDS011;8469;60.136;15.180;2023-11-19T13:41:30;5.33;;;3.30;;
16705;SDS011;8469;60.136;15.180;2023-11-19T13:43:57;9.50;;;3.80;;
16705;SDS011;8469;60.136;15.180;2023-11-19T13:46:25;5.65;;;3.35;;
16705;SDS011;8469;60.136;15.180;2023-11-19T13:48:52;6.47;;;3.50;;
16705;SDS011;8469;60.136;15.180;2023-11-19T13:51:19;4.80;;;3.37;;
16705;SDS011;8469;60.136;15.180;2023-11-19T13:53:47;4.05;;;2.92;;
16705;SDS011;8469;60.136;15.180;2023-11-19T13:56:14;6.83;;;3.67;;
16705;SDS011;8469;60.136;15.180;2023-11-19T13:58:42;7.15;;;4.47;;
16705;SDS011;8469;60.136;15.180;2023-11-19T14:01:09;4.92;;;3.20;;
16705;SDS011;8469;60.136;15.180;2023-11-19T14:03:38;4.22;;;3.00;;
16705;SDS011;8469;60.136;15.180;2023-11-19T14:06:06;3.83;;;3.10;;
16705;SDS011;8469;60.136;15.180;2023-11-19T14:08:34;6.72;;;3.62;;
16705;SDS011;8469;60.136;15.180;2023-11-19T14:13:38;9.45;;;3.60;;
16705;SDS011;8469;60.136;15.180;2023-11-19T14:16:05;7.60;;;3.17;;
16705;SDS011;8469;60.136;15.180;2023-11-19T14:18:34;7.65;;;3.00;;
16705;SDS011;8469;60.136;15.180;2023-11-19T14:21:01;6.28;;;3.20;;
16705;SDS011;8469;60.136;15.180;2023-11-19T14:23:29;6.10;;;3.05;;
16705;SDS011;8469;60.136;15.180;2023-11-19T14:25:57;6.17;;;3.10;;
16705;SDS011;8469;60.136;15.180;2023-11-19T14:28:24;5.83;;;3.00;;
16705;SDS011;8469;60.136;15.180;2023-11-19T14:30:52;5.20;;;3.02;;
16705;SDS011;8469;60.136;15.180;2023-11-19T14:33:21;5.65;;;2.90;;
16705;SDS011;8469;60.136;15.180;2023-11-19T14:35:48;5.70;;;2.95;;
16705;SDS011;8469;60.136;15.180;2023-11-19T14:38:16;4.72;;;2.92;;
16705;SDS011;8469;60.136;15.180;2023-11-19T14:40:43;4.92;;;3.10;;
16705;SDS011;8469;60.136;15.180;2023-11-19T14:43:11;4.50;;;3.05;;
16705;SDS011;8469;60.136;15.180;2023-11-19T14:45:38;8.68;;;2.80;;
16705;SDS011;8469;60.136;15.180;2023-11-19T14:48:06;5.03;;;3.20;;
16705;SDS011;8469;60.136;15.180;2023-11-19T14:50:34;9.88;;;4.10;;
16705;SDS011;8469;60.136;15.180;2023-11-19T14:53:00;30.68;;;10.68;;
16705;SDS011;8469;60.136;15.180;2023-11-19T14:55:29;18.32;;;8.78;;
16705;SDS011;8469;60.136;15.180;2023-11-19T14:57:57;12.23;;;5.17;;
16705;SDS011;8469;60.136;15.180;2023-11-19T15:00:24;7.58;;;4.37;;
16705;SDS011;8469;60.136;15.180;2023-11-19T15:02:51;8.08;;;3.98;;
16705;SDS011;8469;60.136;15.180;2023-11-19T15:05:19;7.40;;;4.20;;
16705;SDS011;8469;60.136;15.180;2023-11-19T15:07:46;7.30;;;3.98;;
16705;SDS011;8469;60.136;15.180;2023-11-19T15:10:14;5.20;;;3.83;;
16705;SDS011;8469;60.136;15.180;2023-11-19T15:12:42;4.67;;;3.30;;
16705;SDS011;8469;60.136;15.180;2023-11-19T15:15:09;6.05;;;3.22;;
16705;SDS011;8469;60.136;15.180;2023-11-19T15:17:38;4.33;;;3.17;;
16705;SDS011;8469;60.136;15.180;2023-11-19T15:20:06;7.25;;;3.45;;
16705;SDS011;8469;60.136;15.180;2023-11-19T15:22:34;5.97;;;3.17;;
16705;SDS011;8469;60.136;15.180;2023-11-19T15:25:01;5.25;;;3.37;;